Time;durP1;ratioP1;P1;durP2;ratioP2;P2;SDS_P1;SDS_P2;PMS_P1;PMS_P2;Temp;Humidity;BMP_temperature;BMP_pressure;BME280_temperature;BME280_humidity;BME280_pressure;Samples;Min_cycle;Max_cycle;Signal;HPM_P1;HPM_P2
2021/04/01 00:02:24;;;;;;;51.83;28.33;;;16.50;55.60;;;;;;5051753;28;20106;-76
2021/04/01 00:04:50;;;;;;;42.72;23.45;;;16.50;55.40;;;;;;5051451;28;20372;-75
2021/04/01 00:07:15;;;;;;;39.92;21.33;;;16.50;55.50;;;;;;5050032;28;20041;-76
2021/04/01 00:09:41;;;;;;;43.55;21.80;;;16.40;55.80;;;;;;5051414;28;20115;-75
2021/04/01 00:12:07;;;;;;;38.67;19.17;;;16.40;55.80;;;;;;5050240;28;20440;-75
2021/04/01 00:14:34;;;;;;;42.92;22.02;;;16.50;56.00;;;;;;5051312;28;20357;-75
2021/04/01 00:17:01;;;;;;;46.08;23.33;;;16.50;55.90;;;;;;5051561;28;20017;-75
2021/04/01 00:19:26;;;;;;;37.30;20.63;;;16.50;55.70;;;;;;5050105;28;20060;-76
2021/04/01 00:21:52;;;;;;;35.63;18.52;;;16.50;55.90;;;;;;5051542;28;20049;-75
2021/04/01 00:24:18;;;;;;;44.08;24.40;;;16.60;56.20;;;;;;5052162;28;20021;-74
2021/04/01 00:26:43;;;;;;;45.80;24.35;;;16.60;56.10;;;;;;5051940;28;20356;-75
2021/04/01 00:29:09;;;;;;;45.15;23.15;;;16.60;55.90;;;;;;5051534;28;20025;-76
2021/04/01 00:31:34;;;;;;;39.10;20.65;;;16.60;55.90;;;;;;5051161;28;20020;-76
2021/04/01 00:34:00;;;;;;;45.22;23.98;;;16.60;56.00;;;;;;5051356;28;20083;-75
2021/04/01 00:36:26;;;;;;;46.97;24.98;;;16.60;55.90;;;;;;5049825;28;20112;-75
2021/04/01 00:38:51;;;;;;;40.33;22.33;;;16.60;55.80;;;;;;5051787;28;20017;-76
2021/04/01 00:41:17;;;;;;;40.05;21.42;;;16.60;55.80;;;;;;5053672;28;20021;-76
2021/04/01 00:43:43;;;;;;;41.03;20.65;;;16.60;56.00;;;;;;5054667;28;20079;-76
2021/04/01 00:46:08;;;;;;;37.15;19.17;;;16.60;55.80;;;;;;5053665;28;20491;-75
2021/04/01 00:48:34;;;;;;;38.55;21.05;;;16.60;56.40;;;;;;5054478;28;20370;-76
2021/04/01 00:50:59;;;;;;;34.75;19.05;;;16.60;56.20;;;;;;5053351;28;20029;-75
2021/04/01 00:53:25;;;;;;;39.13;20.00;;;16.60;56.30;;;;;;5054258;28;20032;-76
2021/04/01 00:55:51;;;;;;;41.17;20.52;;;16.60;56.50;;;;;;5053254;28;20158;-75
2021/04/01 00:58:16;;;;;;;32.45;17.42;;;16.60;56.00;;;;;;5053255;28;20364;-75
2021/04/01 01:00:42;;;;;;;45.38;23.63;;;16.50;56.00;;;;;;5053027;28;20520;-76
2021/04/01 01:03:08;;;;;;;35.97;18.67;;;16.60;56.00;;;;;;5054545;28;20032;-76
2021/04/01 01:05:35;;;;;;;35.88;18.75;;;16.60;55.90;;;;;;5054319;28;20104;-76
2021/04/01 01:08:02;;;;;;;39.53;20.63;;;16.60;56.10;;;;;;5052638;28;20033;-76
2021/04/01 01:10:31;;;;;;;39.90;22.13;;;16.70;56.00;;;;;;5054108;28;20017;-76
2021/04/01 01:12:58;;;;;;;37.33;19.90;;;16.70;56.50;;;;;;5052947;28;20063;-75
2021/04/01 01:15:24;;;;;;;39.33;20.95;;;16.70;56.00;;;;;;5052949;28;20028;-76
2021/04/01 01:17:51;;;;;;;43.45;24.25;;;16.70;56.10;;;;;;5053641;28;20021;-76
2021/04/01 01:20:20;;;;;;;38.42;19.10;;;16.70;56.20;;;;;;5052879;28;20024;-76
2021/04/01 01:22:49;;;;;;;40.50;21.00;;;16.70;56.40;;;;;;5052665;28;20028;-76
2021/04/01 01:25:16;;;;;;;48.00;24.33;;;16.70;56.30;;;;;;5053824;28;20104;-75
2021/04/01 01:27:41;;;;;;;32.35;17.35;;;16.60;56.00;;;;;;5053569;28;20372;-76
2021/04/01 01:30:14;;;;;;;32.60;16.30;;;16.50;56.20;;;;;;5053682;28;20091;-75
2021/04/01 01:32:43;;;;;;;48.47;28.27;;;16.60;57.00;;;;;;5053735;28;20159;-76
2021/04/01 01:35:30;;;;;;;57.58;32.33;;;16.60;56.90;;;;;;5052653;28;20017;-75
2021/04/01 01:37:59;;;;;;;37.13;20.58;;;16.60;55.40;;;;;;5054215;28;20017;-76
2021/04/01 01:40:27;;;;;;;32.72;17.60;;;16.50;56.30;;;;;;5052551;28;20116;-75
2021/04/01 01:42:55;;;;;;;35.10;17.65;;;16.50;56.50;;;;;;5052034;28;20056;-74
2021/04/01 01:45:21;;;;;;;29.25;14.93;;;16.60;57.00;;;;;;5052339;28;20020;-75
2021/04/01 01:47:48;;;;;;;34.83;17.50;;;16.50;57.10;;;;;;5051854;28;20032;-75
2021/04/01 01:50:15;;;;;;;36.88;18.92;;;16.50;58.20;;;;;;5051988;28;20031;-76
2021/04/01 01:52:41;;;;;;;43.58;23.30;;;16.50;57.40;;;;;;5051904;28;20025;-77
2021/04/01 01:55:09;;;;;;;37.17;19.38;;;16.40;57.10;;;;;;5052278;28;20453;-76
2021/04/01 01:57:35;;;;;;;40.80;21.50;;;16.40;57.10;;;;;;5053338;28;20028;-75
2021/04/01 02:00:14;;;;;;;49.08;25.48;;;16.40;56.80;;;;;;5053225;28;20013;-76
2021/04/01 02:02:49;;;;;;;53.45;28.25;;;16.40;56.60;;;;;;5053066;28;20096;-76
2021/04/01 02:05:15;;;;;;;52.08;26.65;;;16.40;56.30;;;;;;5052086;28;20104;-76
2021/04/01 02:07:40;;;;;;;41.35;22.15;;;16.30;56.10;;;;;;5051570;28;20135;-76
2021/04/01 02:10:07;;;;;;;58.63;32.38;;;16.20;56.40;;;;;;5051937;28;20013;-75
2021/04/01 02:12:32;;;;;;;57.35;29.27;;;16.20;56.20;;;;;;5052883;28;20020;-75
2021/04/01 02:14:58;;;;;;;51.65;26.52;;;16.10;56.00;;;;;;5053538;28;20549;-76
2021/04/01 02:17:25;;;;;;;53.35;28.70;;;16.10;56.40;;;;;;5051879;28;20024;-76
2021/04/01 02:19:57;;;;;;;49.38;25.60;;;16.00;55.40;;;;;;5053015;28;20020;-76
2021/04/01 02:22:23;;;;;;;50.65;26.38;;;16.00;55.40;;;;;;5053584;28;20465;-75
2021/04/01 02:24:49;;;;;;;57.28;28.40;;;16.00;56.20;;;;;;5051757;28;20052;-76
2021/04/01 02:27:14;;;;;;;45.58;23.98;;;15.90;55.60;;;;;;5053023;28;20449;-75
2021/04/01 02:29:40;;;;;;;40.92;21.42;;;16.00;56.00;;;;;;5052713;28;20110;-75
2021/04/01 02:32:06;;;;;;;54.58;29.10;;;15.90;56.80;;;;;;5051370;28;20013;-76
2021/04/01 02:34:31;;;;;;;54.17;29.25;;;15.90;56.70;;;;;;5052813;28;20487;-76
2021/04/01 02:36:57;;;;;;;47.08;25.20;;;15.80;55.90;;;;;;5051286;28;20107;-75
2021/04/01 02:39:22;;;;;;;44.13;22.95;;;15.80;56.90;;;;;;5051450;28;20017;-76
2021/04/01 02:41:48;;;;;;;53.90;29.05;;;15.90;56.60;;;;;;5052247;28;20028;-75
2021/04/01 02:44:14;;;;;;;45.33;25.55;;;15.90;56.50;;;;;;5051385;28;20029;-76
2021/04/01 02:46:39;;;;;;;51.92;27.73;;;15.80;56.50;;;;;;5051116;28;20024;-76
2021/04/01 02:49:05;;;;;;;42.75;24.52;;;15.80;57.00;;;;;;5051265;28;20029;-75
2021/04/01 02:51:30;;;;;;;40.50;22.52;;;15.70;57.50;;;;;;5052548;28;20100;-76
2021/04/01 02:53:56;;;;;;;34.88;17.75;;;15.70;58.10;;;;;;5052277;28;20442;-76
2021/04/01 02:56:21;;;;;;;42.75;23.50;;;15.60;58.70;;;;;;5051388;28;20023;-76
2021/04/01 02:58:47;;;;;;;46.88;23.40;;;15.60;59.90;;;;;;5050906;28;20111;-76
2021/04/01 03:01:12;;;;;;;45.13;22.60;;;15.60;59.50;;;;;;5050522;28;20009;-76
2021/04/01 03:03:41;;;;;;;22.60;11.68;;;15.60;59.50;;;;;;5050929;28;20380;-76
2021/04/01 03:06:07;;;;;;;46.00;21.33;;;15.60;62.80;;;;;;5050761;28;20041;-77
2021/04/01 03:08:33;;;;;;;51.42;25.85;;;15.60;61.10;;;;;;5052057;28;20017;-76
2021/04/01 03:10:58;;;;;;;54.70;26.73;;;15.60;59.20;;;;;;5052112;28;20103;-75
2021/04/01 03:13:24;;;;;;;52.70;26.67;;;15.60;57.80;;;;;;5050755;28;20108;-75
2021/04/01 03:15:51;;;;;;;44.83;22.08;;;15.60;57.80;;;;;;5050466;28;20024;-76
2021/04/01 03:18:17;;;;;;;40.30;20.77;;;15.60;58.20;;;;;;5050894;28;20097;-76
2021/04/01 03:20:43;;;;;;;54.58;27.77;;;15.50;59.20;;;;;;5051512;28;20365;-76
2021/04/01 03:23:09;;;;;;;65.43;30.85;;;15.50;59.10;;;;;;5052104;28;20025;-76
2021/04/01 03:25:34;;;;;;;61.35;31.60;;;15.40;58.10;;;;;;5050791;28;20115;-76
2021/04/01 03:28:01;;;;;;;55.45;29.83;;;15.40;58.40;;;;;;5050699;28;20021;-76
2021/04/01 03:30:27;;;;;;;60.08;30.42;;;15.30;58.50;;;;;;5051973;28;20017;-76
2021/04/01 03:32:52;;;;;;;56.20;28.77;;;15.30;58.30;;;;;;5050263;28;20370;-76
2021/04/01 03:35:22;;;;;;;47.95;24.98;;;15.30;58.50;;;;;;5051984;28;20458;-76
2021/04/01 03:37:51;;;;;;;51.80;27.13;;;15.20;58.20;;;;;;5051777;28;20460;-76
2021/04/01 03:40:17;;;;;;;53.58;26.35;;;15.10;58.10;;;;;;5051944;28;20017;-76
2021/04/01 03:42:42;;;;;;;52.85;28.20;;;15.10;58.20;;;;;;5050579;28;20361;-76
2021/04/01 03:45:12;;;;;;;50.78;26.58;;;15.00;58.50;;;;;;5050593;28;20044;-76
2021/04/01 03:47:39;;;;;;;48.35;24.42;;;15.00;58.40;;;;;;5051697;28;20021;-75
2021/04/01 03:50:07;;;;;;;48.65;26.23;;;14.90;58.40;;;;;;5050533;28;20048;-76
2021/04/01 03:52:33;;;;;;;56.00;28.20;;;14.80;59.20;;;;;;5050550;28;20029;-77
2021/04/01 03:55:07;;;;;;;46.17;23.40;;;14.80;58.90;;;;;;5051523;28;20040;-76
2021/04/01 03:57:32;;;;;;;45.85;24.20;;;14.80;59.20;;;;;;5051935;28;20013;-77
2021/04/01 04:00:12;;;;;;;47.88;26.38;;;14.70;59.80;;;;;;5051598;28;20467;-77
2021/04/01 04:13:01;;;;;;;58.17;27.88;;;14.40;60.40;;;;;;5053361;28;20086;-76
2021/04/01 04:15:27;;;;;;;56.40;28.77;;;14.40;60.00;;;;;;5055538;28;20012;-76
2021/04/01 04:17:53;;;;;;;51.03;26.65;;;14.30;60.20;;;;;;5054607;28;20020;-76
2021/04/01 04:20:19;;;;;;;49.30;25.25;;;14.30;59.70;;;;;;5056755;28;20120;-75
2021/04/01 04:22:47;;;;;;;45.50;22.23;;;14.30;59.40;;;;;;5055180;28;20454;-76
2021/04/01 04:25:13;;;;;;;53.03;27.73;;;14.30;59.80;;;;;;5053810;28;20021;-77
2021/04/01 04:27:57;;;;;;;49.60;26.33;;;14.30;60.20;;;;;;5055529;28;20017;-76
2021/04/01 04:30:24;;;;;;;47.67;26.05;;;14.30;60.00;;;;;;5054175;28;20013;-77
2021/04/01 04:32:50;;;;;;;47.50;25.77;;;14.20;60.00;;;;;;5053494;28;20029;-76
2021/04/01 04:35:16;;;;;;;51.20;26.73;;;14.20;60.20;;;;;;5053787;28;20017;-77
2021/04/01 04:37:41;;;;;;;50.15;24.90;;;14.10;60.00;;;;;;5053571;28;20054;-74
2021/04/01 04:40:08;;;;;;;44.03;22.23;;;14.10;60.30;;;;;;5054840;28;20480;-75
2021/04/01 04:42:34;;;;;;;57.45;29.10;;;14.10;60.50;;;;;;5053422;28;20144;-76
2021/04/01 04:44:59;;;;;;;56.05;28.83;;;14.00;60.50;;;;;;5053441;28;20017;-76
2021/04/01 04:47:25;;;;;;;64.50;31.42;;;13.90;60.70;;;;;;5054995;28;20548;-76
2021/04/01 04:49:50;;;;;;;52.78;27.15;;;13.90;61.30;;;;;;5053511;28;20017;-76
2021/04/01 04:52:17;;;;;;;58.28;27.38;;;13.80;60.80;;;;;;5053624;28;20056;-76
2021/04/01 04:54:43;;;;;;;49.08;24.23;;;13.80;60.60;;;;;;5053501;28;20017;-76
2021/04/01 04:57:27;;;;;;;59.13;29.52;;;13.80;61.30;;;;;;5053651;28;20013;-75
2021/04/01 05:05:05;;;;;;;51.88;24.80;;;13.70;60.90;;;;;;5054262;28;20040;-76
2021/04/01 05:07:30;;;;;;;42.78;20.80;;;13.70;61.60;;;;;;5053487;28;20044;-76
2021/04/01 05:09:56;;;;;;;63.17;30.75;;;13.70;61.80;;;;;;5054024;28;20021;-77
2021/04/01 05:12:21;;;;;;;57.47;26.25;;;13.70;61.40;;;;;;5055662;28;20021;-76
2021/04/01 05:14:47;;;;;;;48.40;24.83;;;13.70;62.30;;;;;;5055209;28;20096;-76
2021/04/01 05:17:18;;;;;;;56.80;26.95;;;13.70;61.80;;;;;;5054782;28;20071;-76
2021/04/01 05:19:45;;;;;;;47.72;23.63;;;13.70;61.90;;;;;;5052926;28;20025;-77
2021/04/01 05:23:02;;;;;;;62.88;32.63;;;13.70;62.20;;;;;;5053076;28;20016;-77
2021/04/01 05:24:56;;;;;;;62.83;28.52;;;13.60;62.10;;;;;;5055874;28;20047;-77
2021/04/01 05:30:00;;;;;;;49.67;25.83;;;13.60;62.40;;;;;;5053994;28;20082;-76
2021/04/01 05:32:27;;;;;;;52.25;27.35;;;13.60;62.60;;;;;;5054117;28;20458;-76
2021/04/01 05:34:54;;;;;;;50.38;26.25;;;13.60;62.90;;;;;;5052306;28;20017;-76
2021/04/01 05:37:21;;;;;;;51.72;24.75;;;13.60;62.80;;;;;;5052686;28;20453;-76
2021/04/01 05:39:48;;;;;;;56.35;27.83;;;13.60;63.10;;;;;;5052497;28;20021;-76
2021/04/01 05:42:16;;;;;;;54.17;28.27;;;13.50;63.00;;;;;;5054089;28;20079;-75
2021/04/01 05:44:45;;;;;;;49.10;24.35;;;13.50;63.00;;;;;;5052715;28;20055;-76
2021/04/01 05:47:30;;;;;;;51.95;25.90;;;13.50;63.20;;;;;;5053948;28;20025;-76
2021/04/01 05:58:12;;;;;;;54.67;29.20;;;13.50;63.10;;;;;;5053442;28;20417;-77
2021/04/01 06:06:28;;;;;;;56.15;26.73;;;13.60;63.50;;;;;;5053230;28;20460;-78
2021/04/01 06:08:59;;;;;;;41.92;22.27;;;13.70;63.70;;;;;;5053115;28;20021;-76
2021/04/01 06:11:25;;;;;;;60.20;29.35;;;13.70;63.60;;;;;;5052103;28;20162;-73
2021/04/01 06:14:13;;;;;;;54.08;27.75;;;13.80;64.20;;;;;;5051657;28;20120;-77
2021/04/01 06:16:45;;;;;;;51.47;24.27;;;13.90;63.20;;;;;;5052267;28;20017;-78
2021/04/01 06:19:16;;;;;;;44.90;21.20;;;13.90;64.40;;;;;;5051310;28;20024;-77
2021/04/01 06:21:49;;;;;;;50.75;23.95;;;14.00;64.90;;;;;;5052851;28;20028;-77
2021/04/01 06:24:28;;;;;;;45.75;22.08;;;14.10;65.20;;;;;;5051497;28;20516;-78
2021/04/01 06:30:26;;;;;;;82.95;39.17;;;14.10;65.00;;;;;;5051828;28;20021;-77
2021/04/01 06:33:10;;;;;;;72.65;35.70;;;14.20;64.10;;;;;;5047086;28;20037;-77
2021/04/01 06:36:04;;;;;;;55.70;27.92;;;14.30;64.30;;;;;;5050769;28;20443;-77
2021/04/01 06:38:38;;;;;;;42.90;21.65;;;14.30;64.00;;;;;;5051642;28;20031;-76
2021/04/01 06:41:12;;;;;;;63.97;32.55;;;14.40;67.40;;;;;;5051465;28;20021;-76
2021/04/01 06:43:55;;;;;;;71.88;35.50;;;14.40;64.20;;;;;;5051473;28;20111;-77
2021/04/01 06:46:25;;;;;;;40.35;20.48;;;14.50;63.90;;;;;;5051115;28;20021;-77
2021/04/01 06:51:20;;;;;;;70.18;37.05;;;14.50;65.90;;;;;;5052857;28;20430;-77
2021/04/01 06:54:09;;;;;;;81.55;41.70;;;14.50;64.80;;;;;;5051298;28;20029;-75
2021/04/01 06:57:01;;;;;;;84.43;44.20;;;14.60;63.70;;;;;;5051150;28;20028;-75
2021/04/01 07:02:29;;;;;;;82.47;41.42;;;14.70;62.90;;;;;;5070060;28;20365;-76
2021/04/01 07:05:06;;;;;;;95.07;47.65;;;14.80;62.90;;;;;;5071676;28;20372;-76
2021/04/01 07:07:38;;;;;;;97.72;51.78;;;14.90;63.10;;;;;;5071740;28;20045;-76
2021/04/01 07:10:18;;;;;;;100.82;51.88;;;15.00;62.90;;;;;;5071955;28;20027;-77
2021/04/01 07:12:47;;;;;;;;;;;15.10;61.30;;;;;;5072645;28;20021;-76
2021/04/01 07:15:18;;;;;;;71.80;37.58;;;15.10;61.60;;;;;;5071697;28;19900;-79
2021/04/01 07:17:51;;;;;;;85.63;47.00;;;15.20;62.20;;;;;;5071531;28;20020;-77
2021/04/01 07:47:45;;;;;;;87.75;44.25;;;16.30;63.50;;;;;;5052884;28;20092;-78
2021/04/01 07:50:21;;;;;;;86.63;44.08;;;16.30;61.00;;;;;;5055789;28;20021;-75
2021/04/01 07:52:56;;;;;;;51.72;26.33;;;16.40;61.00;;;;;;5054564;28;20127;-76
2021/04/01 07:55:54;;;;;;;46.88;24.40;;;16.40;63.60;;;;;;5055419;28;20405;-76
2021/04/01 08:01:21;;;;;;;61.53;31.60;;;16.60;66.10;;;;;;5055781;28;20055;-75
2021/04/01 08:06:16;;;;;;;97.18;52.13;;;16.70;63.30;;;;;;5055164;28;20122;-75
2021/04/01 08:08:45;;;;;;;108.45;58.70;;;16.90;60.70;;;;;;5055526;28;20021;-75
2021/04/01 08:11:22;;;;;;;73.78;43.78;;;17.00;60.00;;;;;;5055476;28;20442;-74
2021/04/01 08:13:50;;;;;;;84.40;48.53;;;17.20;59.30;;;;;;5054305;28;20055;-77
2021/04/01 08:16:18;;;;;;;60.80;33.55;;;17.40;59.30;;;;;;5054025;28;20051;-76
2021/04/01 08:18:45;;;;;;;52.83;27.20;;;17.50;62.70;;;;;;5054140;28;20017;-76
2021/04/01 08:21:12;;;;;;;85.43;47.83;;;17.70;60.80;;;;;;5055073;28;20035;-75
2021/04/01 08:23:55;;;;;;;33.17;17.92;;;17.80;58.20;;;;;;5055219;28;20020;-75
2021/04/01 08:26:37;;;;;;;73.57;40.40;;;18.10;62.80;;;;;;5054056;28;20048;-75
2021/04/01 08:34:35;;;;;;;67.88;38.58;;;18.40;56.80;;;;;;5054838;28;20043;-76
2021/04/01 08:37:04;;;;;;;96.47;56.17;;;18.60;60.00;;;;;;5053374;28;20507;-76
2021/04/01 08:39:30;;;;;;;69.53;37.60;;;18.60;55.20;;;;;;5053420;28;20518;-73
2021/04/01 08:42:05;;;;;;;45.47;26.17;;;18.60;59.00;;;;;;5055025;28;20025;-74
2021/04/01 08:48:23;;;;;;;92.78;53.92;;;18.80;62.60;;;;;;5049782;28;20549;-75
2021/04/01 08:51:08;;;;;;;54.42;32.13;;;18.80;55.80;;;;;;5054644;28;20098;-74
2021/04/01 08:54:12;;;;;;;49.03;28.42;;;19.00;59.00;;;;;;5053528;28;20218;-74
2021/04/01 08:56:45;;;;;;;14.07;8.48;;;19.40;62.40;;;;;;5054443;28;20052;-75
2021/04/01 08:59:41;;;;;;;90.60;50.67;;;19.50;62.60;;;;;;5052136;28;20016;-75
2021/04/01 09:02:12;;;;;;;30.35;16.50;;;19.50;58.60;;;;;;5053277;28;20013;-78
2021/04/01 09:04:46;;;;;;;47.15;26.45;;;19.60;61.90;;;;;;5053321;28;20404;-77
2021/04/01 09:07:17;;;;;;;57.83;34.03;;;19.80;61.30;;;;;;5052664;28;20033;-75
2021/04/01 09:09:48;;;;;;;42.20;23.52;;;19.90;59.70;;;;;;5054461;28;20021;-74
2021/04/01 09:12:38;;;;;;;71.95;43.88;;;20.00;60.00;;;;;;5054211;28;20518;-76
2021/04/01 09:15:18;;;;;;;30.95;17.92;;;19.90;60.40;;;;;;5069541;28;20508;-75
2021/04/01 09:17:45;;;;;;;61.53;34.92;;;19.90;62.50;;;;;;5054306;28;20025;-75
2021/04/01 09:20:13;;;;;;;63.47;36.78;;;19.90;55.40;;;;;;5052721;28;20040;-76
2021/04/01 09:22:43;;;;;;;23.00;13.00;;;20.10;58.30;;;;;;5054417;28;20024;-75
2021/04/01 09:25:10;;;;;;;18.95;11.10;;;20.20;62.30;;;;;;5054076;28;20056;-76
2021/04/01 09:27:53;;;;;;;16.73;8.82;;;20.30;62.50;;;;;;5053936;28;20024;-76
2021/04/01 09:30:22;;;;;;;28.20;14.77;;;20.30;63.20;;;;;;5054046;28;20032;-76
2021/04/01 09:32:51;;;;;;;17.67;9.57;;;20.30;62.50;;;;;;5058143;28;20380;-76
2021/04/01 09:35:17;;;;;;;30.20;18.02;;;20.40;62.40;;;;;;5054025;28;20762;-76
2021/04/01 09:37:54;;;;;;;56.58;34.00;;;20.40;60.90;;;;;;5052843;28;20078;-76
2021/04/01 09:40:28;;;;;;;55.00;33.65;;;20.40;61.30;;;;;;5052524;28;20013;-76
2021/04/01 09:42:53;;;;;;;59.42;36.85;;;20.30;62.00;;;;;;5054023;28;20048;-76
2021/04/01 09:45:29;;;;;;;60.45;35.08;;;20.50;60.40;;;;;;5053745;28;20052;-77
2021/04/01 09:48:00;;;;;;;67.00;41.10;;;20.60;59.80;;;;;;5053885;28;20017;-77
2021/04/01 09:50:31;;;;;;;17.60;10.40;;;20.70;54.70;;;;;;5053841;28;20569;-76
2021/04/01 09:53:02;;;;;;;39.13;22.25;;;20.90;62.80;;;;;;5053717;28;20021;-76
2021/04/01 09:55:39;;;;;;;26.08;15.30;;;21.00;60.90;;;;;;5053951;28;20021;-76
2021/04/01 09:58:18;;;;;;;41.67;25.27;;;20.90;62.90;;;;;;5053500;28;20021;-77
2021/04/01 10:03:35;;;;;;;71.03;43.05;;;20.60;62.60;;;;;;5053167;28;20512;-75
2021/04/01 10:06:01;;;;;;;21.60;11.93;;;20.80;53.50;;;;;;5051841;28;20357;-75
2021/04/01 10:08:30;;;;;;;21.10;12.43;;;21.10;61.80;;;;;;5053821;28;20021;-74
2021/04/01 10:11:01;;;;;;;50.22;31.92;;;21.10;62.20;;;;;;5052283;28;20377;-74
2021/04/01 10:13:28;;;;;;;48.08;30.10;;;21.20;59.40;;;;;;5051951;28;20559;-75
2021/04/01 10:15:57;;;;;;;9.43;5.28;;;21.20;61.30;;;;;;5053296;28;20135;-75
2021/04/01 10:18:34;;;;;;;13.20;6.22;;;21.20;63.70;;;;;;5051810;28;20021;-74
2021/04/01 10:21:11;;;;;;;28.08;15.55;;;21.40;63.90;;;;;;5051787;28;20017;-75
2021/04/01 10:23:58;;;;;;;11.70;6.90;;;21.30;62.40;;;;;;5051783;28;20031;-75
2021/04/01 10:26:36;;;;;;;19.67;12.32;;;21.40;63.00;;;;;;5052963;28;20024;-76
2021/04/01 10:29:15;;;;;;;13.15;7.93;;;21.30;59.60;;;;;;5051550;28;20017;-75
2021/04/01 10:31:46;;;;;;;26.35;15.52;;;21.30;63.00;;;;;;5051762;28;20029;-75
2021/04/01 10:34:55;;;;;;;19.48;10.77;;;21.50;60.60;;;;;;5051492;28;20116;-75
2021/04/01 10:37:23;;;;;;;20.65;12.68;;;21.50;63.60;;;;;;5033327;28;20602;-75
2021/04/01 10:39:49;;;;;;;17.83;8.70;;;21.50;62.80;;;;;;5048474;28;20359;-75
2021/04/01 10:42:28;;;;;;;11.88;6.15;;;21.70;61.90;;;;;;5051419;28;20449;-75
2021/04/01 10:44:59;;;;;;;28.23;14.88;;;21.80;62.80;;;;;;5051712;28;20445;-75
2021/04/01 10:47:45;;;;;;;15.15;8.93;;;21.90;54.00;;;;;;5052567;28;20048;-75
2021/04/01 10:50:13;;;;;;;12.50;5.78;;;22.10;60.30;;;;;;5051500;28;20025;-74
2021/04/01 10:52:39;;;;;;;18.77;8.35;;;22.30;60.80;;;;;;5052871;28;20515;-75
2021/04/01 10:55:05;;;;;;;7.68;4.03;;;22.20;58.30;;;;;;5052780;28;20025;-75
2021/04/01 10:57:33;;;;;;;17.27;6.35;;;22.10;62.80;;;;;;5052792;28;20028;-75
2021/04/01 11:00:00;;;;;;;8.27;3.50;;;22.00;62.80;;;;;;5052545;28;20021;-75
2021/04/01 11:02:35;;;;;;;6.47;3.60;;;22.00;62.20;;;;;;5052415;28;20043;-75
2021/04/01 11:05:15;;;;;;;7.43;3.70;;;22.10;64.00;;;;;;5052435;28;20458;-75
2021/04/01 11:07:46;;;;;;;8.57;4.00;;;22.20;63.80;;;;;;5051106;28;20436;-75
2021/04/01 11:10:28;;;;;;;8.40;4.10;;;22.30;62.30;;;;;;5050951;28;20125;-76
2021/04/01 11:12:56;;;;;;;10.38;3.75;;;22.30;59.90;;;;;;5052378;28;20516;-75
2021/04/01 11:15:24;;;;;;;10.15;4.05;;;22.30;63.60;;;;;;5052140;28;20025;-76
2021/04/01 11:18:15;;;;;;;9.30;3.40;;;22.50;58.70;;;;;;5052292;28;20108;-75
2021/04/01 11:20:43;;;;;;;5.63;2.92;;;22.60;57.40;;;;;;5052938;28;20071;-75
2021/04/01 11:23:17;;;;;;;6.45;2.63;;;22.60;60.10;;;;;;5050205;28;20024;-75
2021/04/01 11:25:52;;;;;;;6.00;3.00;;;22.70;63.80;;;;;;5051085;28;20040;-75
2021/04/01 11:28:18;;;;;;;8.43;3.47;;;22.80;62.90;;;;;;5050811;28;20028;-74
2021/04/01 11:30:51;;;;;;;7.65;3.15;;;22.90;62.60;;;;;;5052095;28;20013;-73
2021/04/01 11:33:22;;;;;;;8.63;3.38;;;22.80;62.70;;;;;;5065280;28;20037;-75
2021/04/01 11:35:58;;;;;;;10.43;3.42;;;22.70;63.40;;;;;;5070732;28;20046;-75
2021/04/01 11:38:25;;;;;;;7.68;2.53;;;22.80;59.90;;;;;;5053218;28;20391;-76
2021/04/01 11:40:57;;;;;;;5.28;2.03;;;22.90;64.10;;;;;;5051158;28;20029;-75
2021/04/01 11:43:30;;;;;;;7.40;2.90;;;23.00;63.80;;;;;;5050651;28;20028;-75
2021/04/01 11:45:57;;;;;;;5.30;2.55;;;23.10;54.20;;;;;;5051029;28;20465;-73
2021/04/01 11:48:23;;;;;;;7.80;2.97;;;23.00;62.50;;;;;;5050606;28;20024;-75
2021/04/01 11:50:51;;;;;;;10.20;2.97;;;22.90;61.20;;;;;;5065175;28;20020;-75
2021/04/01 11:53:17;;;;;;;6.68;2.05;;;22.80;60.40;;;;;;5070185;28;20449;-75
2021/04/01 11:55:53;;;;;;;6.93;2.40;;;22.70;64.80;;;;;;5071611;28;20090;-75
2021/04/01 11:58:21;;;;;;;12.73;3.33;;;22.60;58.30;;;;;;5070188;28;20021;-75
2021/04/01 12:00:48;;;;;;;15.40;3.25;;;22.60;61.30;;;;;;5071489;28;20052;-74
2021/04/01 12:03:22;;;;;;;15.38;3.72;;;22.60;61.40;;;;;;5071699;28;20021;-76
2021/04/01 12:05:49;;;;;;;5.53;1.77;;;22.60;59.30;;;;;;5070355;28;20009;-74
2021/04/01 12:08:16;;;;;;;11.18;2.50;;;22.50;64.20;;;;;;5071590;28;20052;-75
2021/04/01 12:10:53;;;;;;;4.18;1.65;;;22.40;64.20;;;;;;5070588;28;20111;-74
2021/04/01 12:13:20;;;;;;;5.95;1.80;;;22.40;66.90;;;;;;5070123;28;20028;-74
2021/04/01 12:15:46;;;;;;;4.32;1.92;;;22.40;66.60;;;;;;5070217;28;20021;-74
2021/04/01 12:18:11;;;;;;;7.68;2.30;;;22.40;66.20;;;;;;5071290;28;20043;-74
2021/04/01 12:20:38;;;;;;;8.05;2.03;;;22.20;66.60;;;;;;5071602;28;20021;-75
2021/04/01 12:23:21;;;;;;;8.20;2.30;;;22.20;66.40;;;;;;5071527;28;20017;-73
2021/04/01 12:25:49;;;;;;;6.78;2.28;;;22.50;64.50;;;;;;5071376;28;20477;-75
2021/04/01 12:28:22;;;;;;;5.40;2.15;;;22.80;66.30;;;;;;5071249;28;20460;-75
2021/04/01 12:30:50;;;;;;;8.10;2.17;;;22.90;63.30;;;;;;5071495;28;20071;-75
2021/04/01 12:33:18;;;;;;;7.97;2.22;;;23.10;61.30;;;;;;5051739;28;20033;-75
2021/04/01 12:36:10;;;;;;;5.28;1.58;;;23.10;55.60;;;;;;5055128;28;20074;-75
2021/04/01 12:38:38;;;;;;;9.13;2.45;;;23.20;60.80;;;;;;5052351;28;20098;-75
2021/04/01 12:41:11;;;;;;;8.68;1.50;;;23.20;57.30;;;;;;5053768;28;20454;-74
2021/04/01 12:43:39;;;;;;;7.13;1.77;;;22.90;62.60;;;;;;5053578;28;20021;-75
2021/04/01 12:46:06;;;;;;;7.63;2.05;;;22.80;64.30;;;;;;5053623;28;20029;-74
2021/04/01 12:48:40;;;;;;;9.15;2.42;;;22.70;64.70;;;;;;5053713;28;20357;-74
2021/04/01 12:51:07;;;;;;;7.20;1.90;;;22.60;54.80;;;;;;5053364;28;20079;-74
2021/04/01 12:53:33;;;;;;;10.23;2.22;;;22.60;64.20;;;;;;5053019;28;20024;-74
2021/04/01 12:56:13;;;;;;;8.43;1.95;;;22.60;64.90;;;;;;5054832;28;20017;-75
2021/04/01 12:58:42;;;;;;;6.70;1.75;;;22.60;63.40;;;;;;5054702;28;20017;-75
2021/04/01 13:01:31;;;;;;;6.60;1.80;;;22.50;66.70;;;;;;5053400;28;20025;-75
2021/04/01 13:03:59;;;;;;;4.55;1.50;;;22.50;62.60;;;;;;5053298;28;20047;-74
2021/04/01 13:06:55;;;;;;;5.45;1.33;;;22.60;67.00;;;;;;5052644;28;20059;-75
2021/04/01 13:11:44;;;;;;;9.73;2.30;;;22.70;60.40;;;;;;5054600;28;20360;-74
2021/04/01 13:14:09;;;;;;;6.55;1.38;;;22.70;61.10;;;;;;5054312;28;20033;-74
2021/04/01 13:16:35;;;;;;;7.43;1.63;;;22.70;63.00;;;;;;5052778;28;20052;-74
2021/04/01 13:19:01;;;;;;;9.30;2.05;;;22.60;57.10;;;;;;5054330;28;20017;-73
2021/04/01 13:21:37;;;;;;;8.00;1.88;;;22.60;59.90;;;;;;5054089;28;20017;-74
2021/04/01 13:26:39;;;;;;;9.57;1.67;;;22.60;63.40;;;;;;5054404;28;20029;-74
2021/04/01 13:29:08;;;;;;;4.28;0.93;;;22.60;62.80;;;;;;5053818;28;20104;-74
2021/04/01 13:31:49;;;;;;;6.95;1.30;;;22.50;63.20;;;;;;5052147;28;20484;-74
2021/04/01 13:39:29;;;;;;;7.03;1.00;;;22.50;59.60;;;;;;5054001;28;20131;-75
2021/04/01 13:44:54;;;;;;;5.10;1.13;;;22.50;57.70;;;;;;5053407;28;20025;-74
2021/04/01 13:47:21;;;;;;;5.15;1.55;;;22.60;62.60;;;;;;5052160;28;20055;-74
2021/04/01 13:49:49;;;;;;;6.88;1.40;;;22.50;61.10;;;;;;5053611;28;20095;-74
2021/04/01 13:57:28;;;;;;;7.03;1.60;;;22.30;57.00;;;;;;5053763;28;20118;-73
2021/04/01 14:11:16;;;;;;;4.32;0.90;;;22.60;61.10;;;;;;5053525;28;20035;-73
2021/04/01 14:13:43;;;;;;;7.60;1.30;;;22.60;59.30;;;;;;5051970;28;20028;-73
2021/04/01 14:16:09;;;;;;;6.40;0.98;;;22.50;61.80;;;;;;5053312;28;20017;-74
2021/04/01 14:18:36;;;;;;;6.15;1.25;;;22.40;58.20;;;;;;5053024;28;20469;-74
2021/04/01 14:21:04;;;;;;;6.78;1.73;;;22.20;60.50;;;;;;5053211;28;20029;-75
2021/04/01 14:23:31;;;;;;;5.07;0.75;;;22.10;58.40;;;;;;5051307;28;20025;-75
2021/04/01 14:26:01;;;;;;;11.40;1.70;;;22.20;59.80;;;;;;5051712;28;20479;-75
2021/04/01 14:28:27;;;;;;;5.35;1.65;;;22.00;55.30;;;;;;5052878;28;20017;-75
2021/04/01 14:30:53;;;;;;;4.78;0.95;;;21.90;46.00;;;;;;5051764;28;20028;-74
2021/04/01 14:33:21;;;;;;;5.32;1.17;;;21.90;55.40;;;;;;5052490;28;20349;-74
2021/04/01 14:35:47;;;;;;;4.95;0.93;;;22.00;53.30;;;;;;5052905;28;20028;-74
2021/04/01 14:38:15;;;;;;;9.02;1.10;;;21.70;56.20;;;;;;5051597;28;20021;-74
2021/04/01 14:40:52;;;;;;;7.30;1.42;;;21.60;55.70;;;;;;5052630;28;20465;-74
2021/04/01 14:43:34;;;;;;;6.03;1.30;;;21.40;56.20;;;;;;5051209;28;20338;-75
2021/04/01 14:46:01;;;;;;;5.57;1.00;;;21.60;59.00;;;;;;5051459;28;20024;-74